Jonesport, Maine
Current Conditions -  °F | °C
As of 5:35 AM on Wednesday 22 Oct 2014 (Local Time) from KBHB Reporting Station
Overcast Overcast  
Wind Chill: 42°   Ceiling: 6000
Heat Index: 48°   Visibility: 10mi
Dew Point: 46°   Wind: 15mph
Humidity: 93%   Direction: 40°NE
Pressure: 30.15"   Gusts: 21mph
Location:  44.53°N, 67.6°W
Report Text: KBHB 220935Z AUTO 04013G18KT 10SM SCT026 BKN060 OVC075 09/08 A3015 RMK AO1
Loading
Personal Weather Stations






























Interactive Weather Map
Tropical Storm Tracking
New forecast layout! Learn more

10-Day Weather Forecast

Advertisements
Track Severe Weather on mobile